Time;durP1;ratioP1;P1;durP2;ratioP2;P2;SDS_P1;SDS_P2;PMS_P1;PMS_P2;Temp;Humidity;BMP_temperature;BMP_pressure;BME280_temperature;BME280_humidity;BME280_pressure;Samples;Min_cycle;Max_cycle;Signal;HPM_P1;HPM_P2
2023/12/27 00:02:14;;;;;;;5.47;2.50;;;;;;;;;;734719;189;919740;-67
2023/12/27 00:04:39;;;;;;;4.20;2.10;;;;;;;;;;732224;188;917206;-67
2023/12/27 00:07:05;;;;;;;3.92;2.08;;;;;;;;;;730363;189;921030;-61
2023/12/27 00:09:31;;;;;;;5.43;1.90;;;;;;;;;;734491;188;914945;-66
2023/12/27 00:11:57;;;;;;;4.70;2.37;;;;;;;;;;713387;192;920075;-67
2023/12/27 00:14:23;;;;;;;2.67;1.70;;;;;;;;;;734359;188;919566;-67
2023/12/27 00:16:49;;;;;;;7.83;2.00;;;;;;;;;;729315;189;918156;-67
2023/12/27 00:19:15;;;;;;;3.53;1.80;;;;;;;;;;712062;191;918923;-67
2023/12/27 00:21:41;;;;;;;5.70;1.63;;;;;;;;;;735648;186;919157;-61
2023/12/27 00:24:07;;;;;;;4.43;1.87;;;;;;;;;;751128;187;918391;-67
2023/12/27 00:26:33;;;;;;;5.23;2.33;;;;;;;;;;742312;186;920295;-61
2023/12/27 00:28:58;;;;;;;3.80;1.90;;;;;;;;;;745294;186;923233;-66
2023/12/27 00:31:24;;;;;;;4.60;2.00;;;;;;;;;;739219;189;818161;-67
2023/12/27 00:33:50;;;;;;;4.13;1.90;;;;;;;;;;722637;191;919236;-67
2023/12/27 00:36:16;;;;;;;4.40;2.20;;;;;;;;;;724458;190;927426;-67
2023/12/27 00:38:42;;;;;;;4.80;2.40;;;;;;;;;;721937;192;918667;-66
2023/12/27 00:41:08;;;;;;;3.28;1.85;;;;;;;;;;738681;188;913691;-61
2023/12/27 00:43:34;;;;;;;5.23;2.23;;;;;;;;;;721094;190;918322;-61
2023/12/27 00:45:59;;;;;;;6.80;2.17;;;;;;;;;;730572;190;821095;-61
2023/12/27 00:48:25;;;;;;;3.73;2.00;;;;;;;;;;741668;187;716354;-68
2023/12/27 00:50:51;;;;;;;3.40;2.10;;;;;;;;;;736723;184;921928;-61
2023/12/27 00:53:17;;;;;;;3.30;2.27;;;;;;;;;;746896;184;918998;-61
2023/12/27 00:55:43;;;;;;;4.10;3.00;;;;;;;;;;748614;185;910669;-68
2023/12/27 00:58:08;;;;;;;2.97;2.00;;;;;;;;;;729292;188;817416;-61
2023/12/27 01:00:34;;;;;;;8.53;2.80;;;;;;;;;;729294;189;924316;-61
2023/12/27 01:03:00;;;;;;;4.37;2.35;;;;;;;;;;734181;187;916407;-61
2023/12/27 01:05:26;;;;;;;6.47;3.10;;;;;;;;;;738305;187;1021104;-66
2023/12/27 01:07:52;;;;;;;5.10;2.33;;;;;;;;;;732640;188;918762;-68
2023/12/27 01:10:18;;;;;;;2.70;1.83;;;;;;;;;;734500;187;918353;-66
2023/12/27 01:12:43;;;;;;;4.83;2.63;;;;;;;;;;738245;188;918514;-66
2023/12/27 01:15:09;;;;;;;5.20;1.97;;;;;;;;;;732093;189;915080;-66
2023/12/27 01:17:35;;;;;;;10.60;2.50;;;;;;;;;;734599;188;924060;-61
2023/12/27 01:20:01;;;;;;;3.93;2.27;;;;;;;;;;739002;187;921641;-61
2023/12/27 01:22:27;;;;;;;5.30;2.37;;;;;;;;;;725639;191;920638;-62
2023/12/27 01:24:53;;;;;;;4.90;2.37;;;;;;;;;;733496;189;909653;-61
2023/12/27 01:27:19;;;;;;;3.80;2.40;;;;;;;;;;736920;189;919412;-68
2023/12/27 01:29:44;;;;;;;4.37;2.67;;;;;;;;;;739207;183;811446;-61
2023/12/27 01:32:10;;;;;;;3.75;2.42;;;;;;;;;;739736;182;2140107;-68
2023/12/27 01:34:38;;;;;;;3.50;2.30;;;;;;;;;;724177;188;860992;-61
2023/12/27 01:37:03;;;;;;;6.32;3.10;;;;;;;;;;725157;191;915025;-67
2023/12/27 01:39:29;;;;;;;3.80;2.20;;;;;;;;;;732870;189;910333;-61
2023/12/27 01:41:55;;;;;;;7.67;2.67;;;;;;;;;;727910;191;920633;-61
2023/12/27 01:44:20;;;;;;;5.70;2.80;;;;;;;;;;733770;188;918518;-67
2023/12/27 01:46:46;;;;;;;4.57;2.60;;;;;;;;;;718194;191;920400;-61
2023/12/27 01:49:12;;;;;;;4.10;2.77;;;;;;;;;;724656;191;920055;-61
2023/12/27 01:51:38;;;;;;;9.70;3.17;;;;;;;;;;737755;189;918921;-61
2023/12/27 01:54:04;;;;;;;5.15;3.30;;;;;;;;;;734650;190;919896;-60
2023/12/27 01:56:30;;;;;;;6.80;3.20;;;;;;;;;;724623;190;919444;-66
2023/12/27 01:58:56;;;;;;;5.50;2.70;;;;;;;;;;730892;190;919136;-66
2023/12/27 02:01:21;;;;;;;5.17;2.67;;;;;;;;;;727858;190;821816;-66
2023/12/27 02:03:47;;;;;;;6.00;2.80;;;;;;;;;;733621;188;817009;-60
2023/12/27 02:06:13;;;;;;;3.80;2.40;;;;;;;;;;735524;188;816859;-61
2023/12/27 02:08:39;;;;;;;3.90;2.70;;;;;;;;;;735958;189;815035;-67
2023/12/27 02:11:05;;;;;;;5.18;2.85;;;;;;;;;;734445;188;922462;-60
2023/12/27 02:13:31;;;;;;;5.30;2.70;;;;;;;;;;733561;188;916452;-61
2023/12/27 02:15:56;;;;;;;5.00;2.70;;;;;;;;;;743502;185;918191;-61
2023/12/27 02:18:22;;;;;;;4.17;2.43;;;;;;;;;;741416;186;917588;-67
2023/12/27 02:20:48;;;;;;;6.23;2.50;;;;;;;;;;731339;188;920007;-67
2023/12/27 02:23:14;;;;;;;3.30;2.13;;;;;;;;;;733347;189;919105;-61
2023/12/27 02:25:40;;;;;;;3.63;2.80;;;;;;;;;;737994;188;837090;-61
2023/12/27 02:28:06;;;;;;;4.20;2.85;;;;;;;;;;736194;186;919049;-61
2023/12/27 02:30:36;;;;;;;3.97;2.80;;;;;;;;;;737947;184;920805;-61
2023/12/27 02:32:57;;;;;;;5.50;2.50;;;;;;;;;;733119;188;716164;-61
2023/12/27 02:35:23;;;;;;;4.03;2.60;;;;;;;;;;733094;189;920367;-60
2023/12/27 02:37:49;;;;;;;5.17;2.43;;;;;;;;;;735247;188;817308;-61
2023/12/27 02:40:15;;;;;;;5.17;3.07;;;;;;;;;;748572;189;795139;-66
2023/12/27 02:42:41;;;;;;;6.77;2.53;;;;;;;;;;733026;187;919445;-67
2023/12/27 02:45:07;;;;;;;4.00;2.50;;;;;;;;;;734855;188;916045;-61
2023/12/27 02:47:33;;;;;;;4.10;2.40;;;;;;;;;;738206;189;868102;-61
2023/12/27 02:49:59;;;;;;;4.17;2.50;;;;;;;;;;736728;188;917314;-67
2023/12/27 02:52:24;;;;;;;3.97;2.47;;;;;;;;;;737193;188;919189;-66
2023/12/27 02:54:50;;;;;;;4.07;2.33;;;;;;;;;;734573;188;918847;-66
2023/12/27 02:57:16;;;;;;;4.70;2.10;;;;;;;;;;736399;189;919132;-66
2023/12/27 02:59:42;;;;;;;4.57;2.07;;;;;;;;;;737759;189;920027;-61
2023/12/27 03:02:08;;;;;;;3.87;2.33;;;;;;;;;;734445;188;888348;-61
2023/12/27 03:04:34;;;;;;;7.90;2.37;;;;;;;;;;739146;189;918655;-67
2023/12/27 03:07:00;;;;;;;4.30;2.00;;;;;;;;;;733846;189;815010;-66
2023/12/27 03:09:25;;;;;;;4.30;2.40;;;;;;;;;;738490;188;919168;-67
2023/12/27 03:11:51;;;;;;;3.87;2.63;;;;;;;;;;739506;187;926338;-61
2023/12/27 03:14:17;;;;;;;4.50;2.10;;;;;;;;;;731480;189;922961;-61
2023/12/27 03:16:43;;;;;;;6.70;2.80;;;;;;;;;;734601;188;919020;-66
2023/12/27 03:19:09;;;;;;;4.62;2.35;;;;;;;;;;736645;188;917010;-61
2023/12/27 03:21:35;;;;;;;10.80;2.97;;;;;;;;;;739455;187;917496;-61
2023/12/27 03:24:01;;;;;;;4.90;2.30;;;;;;;;;;738475;185;917093;-60
2023/12/27 03:26:26;;;;;;;8.97;2.20;;;;;;;;;;732783;188;916317;-66
2023/12/27 03:28:52;;;;;;;3.90;2.67;;;;;;;;;;739831;189;820516;-61
2023/12/27 03:31:18;;;;;;;5.10;2.77;;;;;;;;;;732115;188;919131;-61
2023/12/27 03:33:44;;;;;;;4.27;2.30;;;;;;;;;;733536;189;905565;-61
2023/12/27 03:36:10;;;;;;;4.40;2.50;;;;;;;;;;731160;189;919156;-61
2023/12/27 03:38:36;;;;;;;4.10;2.10;;;;;;;;;;731151;189;920531;-61
2023/12/27 03:41:02;;;;;;;4.40;2.03;;;;;;;;;;734168;184;918960;-60
2023/12/27 03:43:27;;;;;;;6.57;2.60;;;;;;;;;;738461;188;921464;-61
2023/12/27 03:45:54;;;;;;;3.00;2.13;;;;;;;;;;733873;189;919115;-66
2023/12/27 03:48:19;;;;;;;3.22;2.05;;;;;;;;;;734407;188;918874;-67
2023/12/27 03:50:45;;;;;;;2.90;1.90;;;;;;;;;;733115;189;919982;-66
2023/12/27 03:53:11;;;;;;;3.90;2.20;;;;;;;;;;739139;189;815381;-67
2023/12/27 03:55:37;;;;;;;4.50;2.57;;;;;;;;;;736492;188;919026;-67
2023/12/27 03:58:02;;;;;;;3.90;2.10;;;;;;;;;;746060;187;818189;-66
2023/12/27 04:00:28;;;;;;;4.40;2.40;;;;;;;;;;738801;189;963123;-66
2023/12/27 04:02:54;;;;;;;5.20;3.30;;;;;;;;;;734317;189;915769;-66
2023/12/27 04:05:20;;;;;;;9.47;3.23;;;;;;;;;;733514;189;1017188;-61
2023/12/27 04:07:46;;;;;;;5.30;3.10;;;;;;;;;;738882;188;919151;-62
2023/12/27 04:10:12;;;;;;;5.90;3.45;;;;;;;;;;733269;188;922936;-61
2023/12/27 04:12:37;;;;;;;8.33;4.00;;;;;;;;;;733012;189;920818;-61
2023/12/27 04:15:04;;;;;;;5.60;3.07;;;;;;;;;;739305;189;815888;-61
2023/12/27 04:17:30;;;;;;;4.77;2.80;;;;;;;;;;728500;189;919665;-66
2023/12/27 04:19:55;;;;;;;4.47;2.57;;;;;;;;;;735501;189;919193;-68
2023/12/27 04:22:21;;;;;;;4.40;2.70;;;;;;;;;;732401;188;913227;-66
2023/12/27 04:24:47;;;;;;;4.00;2.30;;;;;;;;;;737175;188;914562;-61
2023/12/27 04:27:13;;;;;;;5.20;2.57;;;;;;;;;;732655;188;919256;-68
2023/12/27 04:29:39;;;;;;;6.00;2.50;;;;;;;;;;729898;189;920895;-66
2023/12/27 04:32:05;;;;;;;8.20;4.00;;;;;;;;;;739012;189;867381;-61
2023/12/27 04:34:31;;;;;;;14.67;8.03;;;;;;;;;;732795;187;920343;-66
2023/12/27 04:36:57;;;;;;;48.00;22.00;;;;;;;;;;732529;189;917609;-61
2023/12/27 04:39:23;;;;;;;82.00;36.57;;;;;;;;;;739091;189;918581;-61
2023/12/27 04:41:48;;;;;;;43.47;22.53;;;;;;;;;;735870;188;919178;-61
2023/12/27 04:44:14;;;;;;;64.83;33.40;;;;;;;;;;737429;188;920056;-61
2023/12/27 04:46:40;;;;;;;49.20;26.20;;;;;;;;;;734756;191;815721;-61
2023/12/27 04:49:08;;;;;;;30.83;16.80;;;;;;;;;;735081;189;916479;-61
2023/12/27 04:51:32;;;;;;;23.03;11.67;;;;;;;;;;734130;189;822824;-61
2023/12/27 04:53:58;;;;;;;16.30;6.70;;;;;;;;;;732205;189;868513;-61
2023/12/27 04:56:23;;;;;;;8.30;4.28;;;;;;;;;;734432;190;919381;-61
2023/12/27 04:58:49;;;;;;;4.10;2.70;;;;;;;;;;732279;189;918770;-66
2023/12/27 05:01:15;;;;;;;4.97;2.47;;;;;;;;;;732811;189;913573;-66
2023/12/27 05:03:41;;;;;;;4.03;2.50;;;;;;;;;;737926;189;920581;-66
2023/12/27 05:06:09;;;;;;;7.00;2.33;;;;;;;;;;736080;188;921886;-66
2023/12/27 05:08:35;;;;;;;4.63;2.50;;;;;;;;;;733292;186;919784;-67
2023/12/27 05:11:01;;;;;;;4.20;2.60;;;;;;;;;;735235;188;919898;-65
2023/12/27 05:13:27;;;;;;;7.20;3.27;;;;;;;;;;741652;185;919767;-66
2023/12/27 05:15:53;;;;;;;3.58;2.42;;;;;;;;;;733273;184;918655;-66
2023/12/27 05:18:19;;;;;;;5.03;2.47;;;;;;;;;;736058;187;815269;-61
2023/12/27 05:20:44;;;;;;;4.30;2.00;;;;;;;;;;741462;189;917311;-66
2023/12/27 05:23:10;;;;;;;5.10;3.00;;;;;;;;;;727287;189;921998;-66
2023/12/27 05:25:36;;;;;;;5.63;3.20;;;;;;;;;;737268;188;817059;-66
2023/12/27 05:28:02;;;;;;;4.23;2.40;;;;;;;;;;743370;185;920778;-68
2023/12/27 05:30:28;;;;;;;4.70;1.97;;;;;;;;;;729542;187;919016;-62
2023/12/27 05:32:54;;;;;;;6.20;3.05;;;;;;;;;;731471;189;877366;-67
2023/12/27 05:35:20;;;;;;;3.63;2.07;;;;;;;;;;739489;189;919102;-61
2023/12/27 05:37:45;;;;;;;5.47;2.90;;;;;;;;;;732733;188;919446;-61
2023/12/27 05:40:11;;;;;;;3.93;2.27;;;;;;;;;;732040;189;918868;-65
2023/12/27 05:42:37;;;;;;;4.83;2.63;;;;;;;;;;736403;189;1017231;-65
2023/12/27 05:45:03;;;;;;;4.00;1.97;;;;;;;;;;736276;189;919263;-68
2023/12/27 05:47:29;;;;;;;3.65;2.20;;;;;;;;;;732924;189;915217;-66
2023/12/27 05:49:55;;;;;;;5.32;2.22;;;;;;;;;;732957;188;921741;-61
2023/12/27 05:52:21;;;;;;;3.20;2.00;;;;;;;;;;738569;188;814224;-67
2023/12/27 05:54:47;;;;;;;4.07;1.97;;;;;;;;;;733251;189;913501;-61
2023/12/27 05:57:13;;;;;;;4.73;2.20;;;;;;;;;;734476;188;916393;-61
2023/12/27 05:59:38;;;;;;;5.20;2.67;;;;;;;;;;736298;188;813135;-61
2023/12/27 06:02:06;;;;;;;4.20;2.42;;;;;;;;;;734079;189;913385;-66
2023/12/27 06:04:30;;;;;;;6.03;2.70;;;;;;;;;;732791;188;913475;-66
2023/12/27 06:06:56;;;;;;;7.57;2.87;;;;;;;;;;731911;188;918655;-65
2023/12/27 06:09:22;;;;;;;7.10;2.47;;;;;;;;;;738901;187;923184;-66
2023/12/27 06:11:48;;;;;;;3.47;2.37;;;;;;;;;;728134;189;860016;-61
2023/12/27 06:14:13;;;;;;;5.20;2.80;;;;;;;;;;730601;189;880011;-61
2023/12/27 06:16:39;;;;;;;5.93;3.07;;;;;;;;;;735844;189;922047;-65
2023/12/27 06:19:05;;;;;;;5.37;2.50;;;;;;;;;;736735;188;816325;-61
2023/12/27 06:21:31;;;;;;;6.20;3.20;;;;;;;;;;736785;188;918950;-61
2023/12/27 06:23:57;;;;;;;4.90;2.87;;;;;;;;;;740669;189;914693;-61
2023/12/27 06:26:23;;;;;;;4.93;2.70;;;;;;;;;;731687;187;916356;-61
2023/12/27 06:28:48;;;;;;;5.50;3.40;;;;;;;;;;746845;185;815718;-61
2023/12/27 06:31:14;;;;;;;6.47;3.33;;;;;;;;;;749641;187;922065;-61
2023/12/27 06:33:40;;;;;;;6.50;3.10;;;;;;;;;;737249;184;884543;-61
2023/12/27 06:36:06;;;;;;;7.10;3.23;;;;;;;;;;733212;189;917885;-61
2023/12/27 06:38:32;;;;;;;5.30;3.07;;;;;;;;;;738479;185;918109;-61
2023/12/27 06:40:58;;;;;;;6.50;2.77;;;;;;;;;;737523;189;815509;-65
2023/12/27 06:43:24;;;;;;;4.43;2.70;;;;;;;;;;725743;190;814507;-65
2023/12/27 06:45:50;;;;;;;8.50;3.60;;;;;;;;;;729472;188;926024;-61
2023/12/27 06:48:15;;;;;;;5.83;3.23;;;;;;;;;;739647;188;817282;-66
2023/12/27 06:50:42;;;;;;;5.67;3.27;;;;;;;;;;734132;188;718563;-65
2023/12/27 06:53:08;;;;;;;4.93;2.97;;;;;;;;;;730031;187;949397;-61
2023/12/27 06:55:34;;;;;;;5.37;2.67;;;;;;;;;;719324;191;919220;-66
2023/12/27 06:58:00;;;;;;;4.30;2.70;;;;;;;;;;704565;191;918400;-65
2023/12/27 07:00:25;;;;;;;9.20;3.33;;;;;;;;;;737345;188;919574;-65
2023/12/27 07:02:51;;;;;;;4.63;2.93;;;;;;;;;;738644;186;868426;-61
2023/12/27 07:05:17;;;;;;;4.80;2.77;;;;;;;;;;741967;184;916420;-65
2023/12/27 07:07:43;;;;;;;4.57;2.77;;;;;;;;;;728787;187;936985;-66
2023/12/27 07:10:09;;;;;;;6.07;3.07;;;;;;;;;;735764;186;919346;-60
2023/12/27 07:12:35;;;;;;;6.80;3.47;;;;;;;;;;741264;186;910771;-60
2023/12/27 07:15:00;;;;;;;5.10;3.50;;;;;;;;;;745376;184;813805;-60
2023/12/27 07:17:26;;;;;;;6.70;3.70;;;;;;;;;;738827;183;919751;-60
2023/12/27 07:19:53;;;;;;;5.13;3.10;;;;;;;;;;735306;189;1016732;-60
2023/12/27 07:22:18;;;;;;;7.03;3.80;;;;;;;;;;731139;187;919230;-66
2023/12/27 07:24:44;;;;;;;6.00;2.97;;;;;;;;;;739563;186;894903;-64
2023/12/27 07:27:11;;;;;;;5.37;3.65;;;;;;;;;;748082;187;932917;-60
2023/12/27 07:29:37;;;;;;;4.70;2.87;;;;;;;;;;748922;182;822309;-64
2023/12/27 07:32:04;;;;;;;5.40;2.97;;;;;;;;;;739218;186;888964;-60
2023/12/27 07:34:29;;;;;;;5.10;3.13;;;;;;;;;;748169;185;936532;-60
2023/12/27 07:36:55;;;;;;;9.53;3.20;;;;;;;;;;752666;185;906929;-65
2023/12/27 07:39:21;;;;;;;6.07;3.10;;;;;;;;;;732266;188;921708;-59
2023/12/27 07:41:47;;;;;;;4.03;2.80;;;;;;;;;;721074;189;879179;-64
2023/12/27 07:44:13;;;;;;;3.83;2.97;;;;;;;;;;731136;189;913941;-64
2023/12/27 07:46:38;;;;;;;7.80;3.97;;;;;;;;;;725790;189;905895;-60
2023/12/27 07:49:05;;;;;;;3.70;3.33;;;;;;;;;;731394;189;913906;-60
2023/12/27 07:51:30;;;;;;;7.50;3.40;;;;;;;;;;732196;189;918300;-64
2023/12/27 07:53:56;;;;;;;8.90;3.40;;;;;;;;;;730171;188;917767;-65
2023/12/27 07:56:22;;;;;;;11.30;3.73;;;;;;;;;;729142;189;815503;-66
2023/12/27 07:58:48;;;;;;;7.70;3.57;;;;;;;;;;734219;188;817922;-61
2023/12/27 08:01:13;;;;;;;5.07;3.13;;;;;;;;;;727500;191;916576;-67
2023/12/27 08:03:39;;;;;;;7.83;2.80;;;;;;;;;;727589;190;913654;-62
2023/12/27 08:06:06;;;;;;;4.87;3.57;;;;;;;;;;720229;191;918526;-67
2023/12/27 08:08:31;;;;;;;6.57;3.57;;;;;;;;;;737611;188;917144;-67
2023/12/27 08:10:57;;;;;;;6.93;3.43;;;;;;;;;;735063;188;818056;-61
2023/12/27 08:13:23;;;;;;;5.77;2.77;;;;;;;;;;738756;187;822560;-69
2023/12/27 08:15:49;;;;;;;10.30;3.33;;;;;;;;;;747196;186;825259;-68
2023/12/27 08:18:15;;;;;;;7.60;4.70;;;;;;;;;;738979;188;908431;-68
2023/12/27 08:20:40;;;;;;;10.30;4.15;;;;;;;;;;735366;188;918605;-60
2023/12/27 08:23:07;;;;;;;6.87;2.77;;;;;;;;;;733162;187;919590;-60
2023/12/27 08:25:33;;;;;;;5.47;3.20;;;;;;;;;;741664;185;913870;-60
2023/12/27 08:27:58;;;;;;;9.30;3.60;;;;;;;;;;742724;187;931840;-68
2023/12/27 08:30:24;;;;;;;5.30;3.20;;;;;;;;;;719909;190;918295;-63
2023/12/27 08:32:49;;;;;;;4.93;3.40;;;;;;;;;;730748;190;916123;-60
2023/12/27 08:35:15;;;;;;;5.03;3.40;;;;;;;;;;725702;190;917719;-69
2023/12/27 08:37:41;;;;;;;10.10;2.90;;;;;;;;;;726190;189;918259;-68
2023/12/27 08:40:07;;;;;;;5.10;2.77;;;;;;;;;;725718;190;902174;-69
2023/12/27 08:42:33;;;;;;;6.83;3.53;;;;;;;;;;739469;188;633875;-69
2023/12/27 08:44:59;;;;;;;6.37;3.20;;;;;;;;;;739157;188;630691;-69
2023/12/27 08:47:25;;;;;;;7.27;3.43;;;;;;;;;;739103;189;869141;-60
2023/12/27 08:49:52;;;;;;;5.97;3.00;;;;;;;;;;736677;188;812131;-60
2023/12/27 08:52:16;;;;;;;7.87;2.90;;;;;;;;;;738456;188;620674;-60
2023/12/27 08:54:42;;;;;;;5.83;3.10;;;;;;;;;;737289;189;623049;-69
2023/12/27 08:57:08;;;;;;;11.80;3.80;;;;;;;;;;740387;189;642571;-69
2023/12/27 08:59:34;;;;;;;5.13;2.60;;;;;;;;;;736648;189;813799;-69
2023/12/27 09:02:00;;;;;;;8.33;3.60;;;;;;;;;;733915;189;926508;-69
2023/12/27 09:04:26;;;;;;;6.93;3.27;;;;;;;;;;739740;187;624628;-70
2023/12/27 09:06:53;;;;;;;10.30;3.63;;;;;;;;;;736136;189;637045;-60
2023/12/27 09:09:17;;;;;;;5.27;2.50;;;;;;;;;;737546;188;625553;-69
2023/12/27 09:11:43;;;;;;;4.47;2.57;;;;;;;;;;739724;189;619796;-70
2023/12/27 09:14:10;;;;;;;6.63;2.90;;;;;;;;;;734920;189;625176;-70
2023/12/27 09:16:35;;;;;;;5.10;3.07;;;;;;;;;;735268;189;642023;-69
2023/12/27 09:19:02;;;;;;;10.53;3.00;;;;;;;;;;730486;188;624028;-61
2023/12/27 09:21:27;;;;;;;6.30;3.17;;;;;;;;;;748481;186;628511;-69
2023/12/27 09:23:53;;;;;;;14.23;3.93;;;;;;;;;;736114;184;888525;-69
2023/12/27 09:26:19;;;;;;;7.33;3.03;;;;;;;;;;732742;189;811631;-69
2023/12/27 09:28:45;;;;;;;4.80;2.83;;;;;;;;;;736523;189;911003;-60
2023/12/27 09:31:11;;;;;;;5.03;3.00;;;;;;;;;;732720;188;920241;-60
2023/12/27 09:33:36;;;;;;;6.93;3.17;;;;;;;;;;733201;188;916044;-69
2023/12/27 09:36:02;;;;;;;3.53;2.03;;;;;;;;;;736808;188;916558;-60
2023/12/27 09:38:28;;;;;;;3.60;2.40;;;;;;;;;;734506;189;914365;-67
2023/12/27 09:40:54;;;;;;;6.10;3.03;;;;;;;;;;735148;186;930354;-59
2023/12/27 09:43:21;;;;;;;9.30;3.05;;;;;;;;;;736502;188;919637;-59
2023/12/27 09:45:47;;;;;;;5.70;3.70;;;;;;;;;;740601;185;918365;-60
2023/12/27 09:48:12;;;;;;;5.20;2.47;;;;;;;;;;734472;186;918903;-59
2023/12/27 09:50:38;;;;;;;5.53;2.63;;;;;;;;;;731239;188;919133;-59
2023/12/27 09:53:04;;;;;;;5.93;2.03;;;;;;;;;;737817;188;898914;-59
2023/12/27 09:55:30;;;;;;;3.30;2.03;;;;;;;;;;731562;188;1636208;-68
2023/12/27 09:57:56;;;;;;;7.33;2.90;;;;;;;;;;733963;186;918993;-60
2023/12/27 10:00:22;;;;;;;4.23;2.13;;;;;;;;;;739312;188;816120;-59
2023/12/27 10:02:47;;;;;;;6.03;2.05;;;;;;;;;;734307;188;919189;-59
2023/12/27 10:05:16;;;;;;;5.53;2.67;;;;;;;;;;733822;188;920274;-59
2023/12/27 10:07:41;;;;;;;3.28;1.95;;;;;;;;;;735021;188;918653;-60
2023/12/27 10:10:08;;;;;;;7.00;2.60;;;;;;;;;;737134;187;845751;-59
2023/12/27 10:12:35;;;;;;;5.03;2.43;;;;;;;;;;733383;188;916912;-59
2023/12/27 10:14:59;;;;;;;4.60;2.00;;;;;;;;;;732889;187;918155;-60
2023/12/27 10:17:26;;;;;;;4.67;2.80;;;;;;;;;;738888;188;819780;-68
2023/12/27 10:19:51;;;;;;;5.27;2.30;;;;;;;;;;733473;188;918400;-60
2023/12/27 10:22:17;;;;;;;5.63;3.27;;;;;;;;;;732197;188;920607;-68
2023/12/27 10:24:43;;;;;;;4.87;2.13;;;;;;;;;;736427;189;918726;-68
2023/12/27 10:27:09;;;;;;;6.87;1.73;;;;;;;;;;731869;189;918955;-59
2023/12/27 10:29:35;;;;;;;7.50;2.47;;;;;;;;;;732997;188;896235;-68
2023/12/27 10:32:00;;;;;;;3.80;2.17;;;;;;;;;;738089;188;919032;-68
2023/12/27 10:34:27;;;;;;;3.83;2.37;;;;;;;;;;733150;189;827439;-69
2023/12/27 10:36:53;;;;;;;4.13;1.80;;;;;;;;;;731535;187;924054;-69
2023/12/27 10:39:19;;;;;;;4.10;1.93;;;;;;;;;;729062;188;918905;-60
2023/12/27 10:41:44;;;;;;;3.50;2.10;;;;;;;;;;740177;187;814690;-60
2023/12/27 10:44:11;;;;;;;5.77;2.10;;;;;;;;;;733136;187;917804;-59
2023/12/27 10:46:38;;;;;;;4.83;2.17;;;;;;;;;;731675;189;918352;-68
2023/12/27 10:49:02;;;;;;;4.28;1.70;;;;;;;;;;739038;189;718376;-68
2023/12/27 10:51:28;;;;;;;4.60;2.60;;;;;;;;;;730876;189;918879;-67
2023/12/27 10:53:54;;;;;;;4.95;1.90;;;;;;;;;;731223;188;919148;-67
2023/12/27 10:56:19;;;;;;;4.97;2.17;;;;;;;;;;736277;188;917285;-67
2023/12/27 10:58:46;;;;;;;6.03;1.87;;;;;;;;;;733851;188;917855;-67
2023/12/27 11:01:11;;;;;;;3.87;1.87;;;;;;;;;;733964;187;919179;-67
2023/12/27 11:03:37;;;;;;;7.03;1.90;;;;;;;;;;735595;188;920916;-67
2023/12/27 11:06:04;;;;;;;10.80;2.42;;;;;;;;;;751900;184;931702;-67
2023/12/27 11:08:31;;;;;;;7.93;2.00;;;;;;;;;;736958;187;918707;-60
2023/12/27 11:10:56;;;;;;;3.90;1.73;;;;;;;;;;737500;189;829013;-67
2023/12/27 11:13:24;;;;;;;5.03;1.47;;;;;;;;;;738043;188;939088;-68
2023/12/27 11:15:48;;;;;;;5.97;1.80;;;;;;;;;;734328;187;919519;-67
2023/12/27 11:18:13;;;;;;;6.70;2.73;;;;;;;;;;737031;187;816168;-60
2023/12/27 11:20:39;;;;;;;2.50;1.40;;;;;;;;;;740661;188;917493;-60
2023/12/27 11:23:05;;;;;;;6.43;2.20;;;;;;;;;;733239;188;918412;-67
2023/12/27 11:25:31;;;;;;;3.77;2.23;;;;;;;;;;733305;189;920292;-68
2023/12/27 11:27:57;;;;;;;3.40;1.85;;;;;;;;;;733977;188;918768;-67
2023/12/27 11:30:23;;;;;;;7.10;2.30;;;;;;;;;;740008;186;816503;-68
2023/12/27 11:32:49;;;;;;;4.07;2.17;;;;;;;;;;735999;187;938141;-68
2023/12/27 11:35:20;;;;;;;4.70;2.13;;;;;;;;;;733026;188;919192;-68
2023/12/27 11:37:46;;;;;;;4.63;2.13;;;;;;;;;;738890;189;920108;-61
2023/12/27 11:40:12;;;;;;;4.03;2.17;;;;;;;;;;733333;188;921071;-60
2023/12/27 11:42:38;;;;;;;6.67;1.73;;;;;;;;;;734115;187;916667;-59
2023/12/27 11:45:04;;;;;;;3.97;1.92;;;;;;;;;;738513;188;816393;-67
2023/12/27 11:47:30;;;;;;;4.77;1.67;;;;;;;;;;732647;188;816800;-61
2023/12/27 11:50:02;;;;;;;5.60;2.30;;;;;;;;;;731344;189;919060;-60
2023/12/27 11:52:27;;;;;;;3.63;1.83;;;;;;;;;;731720;189;928685;-60
2023/12/27 11:54:53;;;;;;;5.77;1.80;;;;;;;;;;737320;187;909577;-67
2023/12/27 11:57:19;;;;;;;4.78;2.05;;;;;;;;;;730362;188;919451;-69
2023/12/27 11:59:45;;;;;;;3.73;2.00;;;;;;;;;;735512;189;816710;-59
2023/12/27 12:02:11;;;;;;;4.50;2.03;;;;;;;;;;738114;188;823352;-59
2023/12/27 12:04:39;;;;;;;3.50;1.63;;;;;;;;;;732961;188;918362;-60
2023/12/27 12:07:06;;;;;;;4.00;1.57;;;;;;;;;;733852;188;853633;-68
2023/12/27 12:09:35;;;;;;;4.87;2.13;;;;;;;;;;736590;187;919720;-68
2023/12/27 12:12:07;;;;;;;12.77;2.20;;;;;;;;;;738163;189;921357;-68
2023/12/27 12:14:33;;;;;;;3.87;1.97;;;;;;;;;;730885;188;1020891;-67
2023/12/27 12:16:58;;;;;;;3.30;1.90;;;;;;;;;;736531;188;820842;-68
2023/12/27 12:19:24;;;;;;;4.83;2.00;;;;;;;;;;735298;188;819035;-67
2023/12/27 12:21:51;;;;;;;6.43;2.00;;;;;;;;;;738321;188;916984;-67
2023/12/27 12:24:18;;;;;;;3.43;1.97;;;;;;;;;;732888;188;919305;-67
2023/12/27 12:26:45;;;;;;;6.03;2.05;;;;;;;;;;733784;188;816816;-60
2023/12/27 12:29:08;;;;;;;4.03;1.93;;;;;;;;;;736470;188;919699;-67
2023/12/27 12:31:34;;;;;;;9.63;2.10;;;;;;;;;;733404;188;918303;-67
2023/12/27 12:33:59;;;;;;;4.33;3.73;;;;;;;;;;733781;188;918861;-67
2023/12/27 12:36:25;;;;;;;4.40;2.70;;;;;;;;;;738325;189;921371;-68
2023/12/27 12:38:51;;;;;;;9.23;2.67;;;;;;;;;;734691;189;817224;-67
2023/12/27 12:41:17;;;;;;;6.00;2.17;;;;;;;;;;736012;188;761326;-60
2023/12/27 12:43:43;;;;;;;5.57;2.13;;;;;;;;;;737868;188;876823;-67
2023/12/27 12:46:09;;;;;;;5.03;2.70;;;;;;;;;;741449;186;1124854;-67
2023/12/27 12:48:36;;;;;;;5.60;2.43;;;;;;;;;;734689;185;923906;-60
2023/12/27 12:51:06;;;;;;;6.63;2.80;;;;;;;;;;734135;188;828526;-66
2023/12/27 12:53:32;;;;;;;4.47;2.27;;;;;;;;;;738266;189;818958;-67
2023/12/27 12:55:58;;;;;;;6.47;2.40;;;;;;;;;;732970;188;888768;-60
2023/12/27 12:58:24;;;;;;;3.50;2.10;;;;;;;;;;731070;188;905994;-60
2023/12/27 13:00:50;;;;;;;4.43;1.70;;;;;;;;;;735888;189;919294;-60
2023/12/27 13:03:16;;;;;;;9.13;2.33;;;;;;;;;;746879;186;919354;-67
2023/12/27 13:05:42;;;;;;;3.00;2.00;;;;;;;;;;733711;188;917878;-60
2023/12/27 13:08:08;;;;;;;4.33;2.63;;;;;;;;;;732452;188;912739;-67
2023/12/27 13:10:36;;;;;;;5.33;2.33;;;;;;;;;;736634;189;919901;-67
2023/12/27 13:13:02;;;;;;;5.80;2.57;;;;;;;;;;732290;188;923429;-60
2023/12/27 13:15:28;;;;;;;7.15;2.85;;;;;;;;;;734453;187;816260;-61
2023/12/27 13:17:54;;;;;;;3.97;2.30;;;;;;;;;;740371;187;894182;-60
2023/12/27 13:20:20;;;;;;;8.07;2.40;;;;;;;;;;739011;184;848999;-69
2023/12/27 13:22:46;;;;;;;7.47;2.63;;;;;;;;;;732189;187;920879;-60
2023/12/27 13:25:12;;;;;;;5.73;2.33;;;;;;;;;;732599;189;898693;-60
2023/12/27 13:27:37;;;;;;;9.93;2.30;;;;;;;;;;735151;189;910608;-60
2023/12/27 13:30:03;;;;;;;11.27;2.40;;;;;;;;;;733744;188;919076;-67
2023/12/27 13:32:29;;;;;;;8.00;2.30;;;;;;;;;;732964;188;918993;-66
2023/12/27 13:34:55;;;;;;;6.90;3.17;;;;;;;;;;740194;188;920212;-66
2023/12/27 13:37:21;;;;;;;5.47;2.17;;;;;;;;;;735156;188;928366;-67
2023/12/27 13:39:47;;;;;;;6.40;2.47;;;;;;;;;;733914;189;821914;-66
2023/12/27 13:42:13;;;;;;;5.63;2.60;;;;;;;;;;739329;188;819162;-60
2023/12/27 13:44:39;;;;;;;5.80;2.40;;;;;;;;;;734376;187;818851;-67
2023/12/27 13:47:05;;;;;;;6.13;2.70;;;;;;;;;;733710;188;812373;-60
2023/12/27 13:49:31;;;;;;;6.23;2.10;;;;;;;;;;739096;188;808512;-60
2023/12/27 13:51:56;;;;;;;6.00;2.60;;;;;;;;;;734212;188;916372;-67
2023/12/27 13:54:22;;;;;;;8.82;3.87;;;;;;;;;;732780;188;916591;-66
2023/12/27 13:56:48;;;;;;;4.93;2.90;;;;;;;;;;735676;188;754028;-60
2023/12/27 13:59:14;;;;;;;5.00;2.53;;;;;;;;;;737883;189;845910;-60
2023/12/27 14:01:40;;;;;;;9.33;3.83;;;;;;;;;;732994;188;919590;-67
2023/12/27 14:04:06;;;;;;;3.80;2.47;;;;;;;;;;730399;188;919283;-67
2023/12/27 14:06:32;;;;;;;6.50;2.90;;;;;;;;;;736790;188;914561;-67
2023/12/27 14:08:58;;;;;;;6.00;2.80;;;;;;;;;;733438;188;919261;-59
2023/12/27 14:11:26;;;;;;;7.73;2.53;;;;;;;;;;730589;187;918939;-60
2023/12/27 14:13:50;;;;;;;10.40;2.80;;;;;;;;;;740035;189;919554;-67
2023/12/27 14:16:16;;;;;;;7.97;2.55;;;;;;;;;;733101;188;920510;-60
2023/12/27 14:18:42;;;;;;;5.13;2.70;;;;;;;;;;739631;187;815516;-59
2023/12/27 14:21:07;;;;;;;14.77;3.20;;;;;;;;;;740411;187;901902;-61